Time,TemperatureF,DewpointF,PressureIn,WindDirection,WindDirectionDegrees,WindSpeedMPH,WindSpeedGustMPH,Humidity,HourlyPrecipIn,Conditions,Clouds,dailyrainin,SoftwareType,DateUTC
2013-01-23 00:07:00,50.3,43.0,30.04,South,177,1.0,2.0,76,0.00,,,0.00,weatherlink.com 1.10,2013-01-23 08:07:00,
2013-01-23 00:22:00,50.7,43.0,30.03,South,176,0.0,2.0,74,0.00,,,0.00,weatherlink.com 1.10,2013-01-23 08:22:00,
2013-01-23 00:37:00,50.5,43.0,30.03,South,176,0.0,0.0,76,0.00,,,0.00,weatherlink.com 1.10,2013-01-23 08:37:00,
2013-01-23 00:52:00,50.1,43.0,30.03,South,176,0.0,0.0,77,0.00,,,0.00,weatherlink.com 1.10,2013-01-23 08:52:00,
2013-01-23 01:07:00,50.3,43.0,30.01,South,176,2.0,2.0,76,0.00,,,0.00,weatherlink.com 1.10,2013-01-23 09:07:00,
2013-01-23 01:22:00,49.9,44.0,30.01,South,176,2.0,5.0,80,0.00,,,0.00,weatherlink.com 1.10,2013-01-23 09:22:00,
2013-01-23 01:37:00,50.7,43.0,30.01,South,176,4.0,6.0,76,0.00,,,0.00,weatherlink.com 1.10,2013-01-23 09:37:00,
2013-01-23 01:52:00,51.6,44.0,30.01,South,176,4.0,5.0,74,0.00,,,0.00,weatherlink.com 1.10,2013-01-23 09:52:00,
2013-01-23 02:07:00,52.4,43.0,30.01,South,176,0.0,6.0,71,0.00,,,0.00,weatherlink.com 1.10,2013-01-23 10:07:00,
2013-01-23 02:22:00,51.8,44.0,30.01,South,176,0.0,3.0,76,0.00,,,0.00,weatherlink.com 1.10,2013-01-23 10:22:00,
2013-01-23 02:37:00,51.5,43.0,30.01,South,176,2.0,3.0,74,0.00,,,0.00,weatherlink.com 1.10,2013-01-23 10:37:00,
2013-01-23 02:52:00,53.0,42.0,30.01,South,176,3.0,4.0,67,0.00,,,0.00,weatherlink.com 1.10,2013-01-23 10:52:00,
2013-01-23 03:07:00,52.6,43.0,30.00,South,177,0.0,1.0,69,0.00,,,0.00,weatherlink.com 1.10,2013-01-23 11:07:00,
2013-01-23 03:22:00,51.8,43.0,29.99,South,177,0.0,1.0,71,0.00,,,0.00,weatherlink.com 1.10,2013-01-23 11:22:00,
2013-01-23 03:37:00,51.8,43.0,29.99,South,177,0.0,0.0,72,0.00,,,0.00,weatherlink.com 1.10,2013-01-23 11:37:00,
2013-01-23 03:52:00,51.2,45.0,29.98,South,176,1.0,2.0,78,0.00,,,0.00,weatherlink.com 1.10,2013-01-23 11:52:00,
2013-01-23 04:07:00,50.3,45.0,30.00,South,176,0.0,2.0,81,0.00,,,0.00,weatherlink.com 1.10,2013-01-23 12:07:00,
2013-01-23 04:22:00,50.9,43.0,29.98,South,176,0.0,1.0,74,0.00,,,0.00,weatherlink.com 1.10,2013-01-23 12:22:00,
2013-01-23 04:37:00,52.0,44.0,29.98,South,176,2.0,6.0,75,0.00,,,0.00,weatherlink.com 1.10,2013-01-23 12:37:00,
2013-01-23 04:52:00,51.2,43.0,29.98,South,176,0.0,2.0,73,0.00,,,0.00,weatherlink.com 1.10,2013-01-23 12:52:00,
2013-01-23 05:07:00,51.2,43.0,29.97,South,176,0.0,0.0,73,0.00,,,0.00,weatherlink.com 1.10,2013-01-23 13:07:00,
2013-01-23 05:22:00,51.6,43.0,29.97,South,176,0.0,3.0,72,0.00,,,0.00,weatherlink.com 1.10,2013-01-23 13:22:00,
2013-01-23 05:37:00,51.8,43.0,29.97,South,176,3.0,3.0,72,0.00,,,0.00,weatherlink.com 1.10,2013-01-23 13:37:00,
2013-01-23 05:52:00,52.1,43.0,29.96,South,176,0.0,6.0,71,0.00,,,0.00,weatherlink.com 1.10,2013-01-23 13:52:00,
2013-01-23 06:07:00,52.0,44.0,29.96,South,176,1.0,7.0,73,0.00,,,0.00,weatherlink.com 1.10,2013-01-23 14:07:00,
2013-01-23 06:22:00,51.4,44.0,29.98,South,176,0.0,1.0,76,0.00,,,0.00,weatherlink.com 1.10,2013-01-23 14:22:00,
2013-01-23 06:37:00,52.1,43.0,29.98,South,177,1.0,5.0,72,0.00,,,0.00,weatherlink.com 1.10,2013-01-23 14:37:00,
2013-01-23 06:52:00,53.1,44.0,29.97,South,176,4.0,5.0,70,0.00,,,0.00,weatherlink.com 1.10,2013-01-23 14:52:00,
2013-01-23 07:08:00,53.0,44.0,29.98,South,177,3.0,7.0,71,0.00,,,0.00,weatherlink.com 1.10,2013-01-23 15:08:00,
2013-01-23 07:23:00,52.7,44.0,29.98,South,176,3.0,6.0,72,0.00,,,0.00,weatherlink.com 1.10,2013-01-23 15:23:00,
2013-01-23 07:38:00,52.2,45.0,29.99,South,176,4.0,7.0,75,0.00,,,0.00,weatherlink.com 1.10,2013-01-23 15:38:00,
2013-01-23 07:53:00,52.6,44.0,29.99,South,176,0.0,6.0,73,0.00,,,0.00,weatherlink.com 1.10,2013-01-23 15:53:00,
2013-01-23 08:08:00,52.2,44.0,29.99,South,176,0.0,2.0,74,0.00,,,0.00,weatherlink.com 1.10,2013-01-23 16:08:00,
2013-01-23 08:23:00,52.2,45.0,29.99,South,177,0.0,5.0,75,0.00,,,0.00,weatherlink.com 1.10,2013-01-23 16:23:00,
2013-01-23 08:38:00,51.9,44.0,29.99,South,177,0.0,6.0,75,0.00,,,0.00,weatherlink.com 1.10,2013-01-23 16:38:00,
2013-01-23 08:53:00,52.8,43.0,30.00,South,176,3.0,6.0,70,0.00,,,0.00,weatherlink.com 1.10,2013-01-23 16:53:00,
2013-01-23 09:08:00,53.3,44.0,30.01,South,176,2.0,7.0,70,0.00,,,0.00,weatherlink.com 1.10,2013-01-23 17:08:00,
2013-01-23 09:23:00,54.1,44.0,30.02,South,176,0.0,3.0,68,0.00,,,0.00,weatherlink.com 1.10,2013-01-23 17:23:00,
2013-01-23 09:38:00,54.7,43.0,30.01,South,177,4.0,5.0,65,0.00,,,0.00,weatherlink.com 1.10,2013-01-23 17:38:00,
2013-01-23 09:53:00,54.9,43.0,30.02,South,176,3.0,6.0,64,0.00,,,0.00,weatherlink.com 1.10,2013-01-23 17:53:00,
2013-01-23 10:08:00,55.3,42.0,30.02,South,176,0.0,2.0,62,0.00,,,0.00,weatherlink.com 1.10,2013-01-23 18:08:00,
2013-01-23 10:23:00,55.7,41.0,30.02,South,176,0.0,2.0,59,0.00,,,0.00,weatherlink.com 1.10,2013-01-23 18:23:00,
2013-01-23 10:38:00,57.1,43.0,30.02,South,177,1.0,8.0,60,0.00,,,0.00,weatherlink.com 1.10,2013-01-23 18:38:00,
2013-01-23 10:53:00,56.7,44.0,30.02,South,177,1.0,4.0,63,0.00,,,0.00,weatherlink.com 1.10,2013-01-23 18:53:00,
2013-01-23 11:09:00,56.1,44.0,30.03,South,176,1.0,6.0,65,0.00,,,0.00,weatherlink.com 1.10,2013-01-23 19:09:00,
2013-01-23 11:23:00,54.4,47.0,30.03,South,176,0.0,4.0,75,0.00,,,0.00,weatherlink.com 1.10,2013-01-23 19:23:00,
2013-01-23 11:38:00,53.2,47.0,30.02,South,176,4.0,7.0,79,0.00,,,0.00,weatherlink.com 1.10,2013-01-23 19:38:00,
2013-01-23 11:53:00,53.5,47.0,30.02,South,176,2.0,8.0,79,0.00,,,0.00,weatherlink.com 1.10,2013-01-23 19:53:00,
2013-01-23 12:08:00,53.8,45.0,30.01,South,176,1.0,9.0,72,0.01,,,0.01,weatherlink.com 1.10,2013-01-23 20:08:00,
2013-01-23 13:20:00,52.8,48.0,29.99,South,176,4.0,9.0,83,0.01,,,0.02,weatherlink.com 1.10,2013-01-23 21:20:00,
2013-01-23 13:39:00,52.0,48.0,30.02,South,177,4.0,6.0,87,0.03,,,0.05,weatherlink.com 1.10,2013-01-23 21:39:00,
2013-01-23 13:54:00,51.8,48.0,30.04,South,176,0.0,4.0,88,0.09,,,0.11,weatherlink.com 1.10,2013-01-23 21:54:00,
2013-01-23 14:09:00,51.0,47.0,30.05,South,176,2.0,5.0,87,0.11,,,0.13,weatherlink.com 1.10,2013-01-23 22:09:00,
2013-01-23 14:31:00,50.6,48.0,30.02,South,176,0.0,6.0,90,0.11,,,0.15,weatherlink.com 1.10,2013-01-23 22:31:00,
2013-01-23 14:39:00,50.8,48.0,30.03,South,177,1.0,3.0,90,0.10,,,0.16,weatherlink.com 1.10,2013-01-23 22:39:00,
2013-01-23 14:54:00,50.6,48.0,30.04,South,177,0.0,5.0,91,0.06,,,0.17,weatherlink.com 1.10,2013-01-23 22:54:00,
2013-01-23 15:09:00,50.7,49.0,30.04,South,176,1.0,4.0,93,0.07,,,0.20,weatherlink.com 1.10,2013-01-23 23:09:00,
2013-01-23 15:24:00,50.8,49.0,30.04,South,176,1.0,3.0,94,0.09,,,0.23,weatherlink.com 1.10,2013-01-23 23:24:00,
2013-01-23 15:39:00,51.1,50.0,30.04,South,177,0.0,2.0,94,0.08,,,0.24,weatherlink.com 1.10,2013-01-23 23:39:00,
2013-01-23 15:54:00,51.2,50.0,30.05,South,177,0.0,7.0,95,0.10,,,0.27,weatherlink.com 1.10,2013-01-23 23:54:00,
2013-01-23 16:09:00,51.4,50.0,30.05,South,176,0.0,7.0,95,0.10,,,0.30,weatherlink.com 1.10,2013-01-24 00:09:00,
2013-01-23 16:24:00,51.6,50.0,30.04,South,176,0.0,2.0,95,0.09,,,0.32,weatherlink.com 1.10,2013-01-24 00:24:00,
2013-01-23 16:39:00,51.5,50.0,30.05,South,177,2.0,4.0,95,0.08,,,0.32,weatherlink.com 1.10,2013-01-24 00:39:00,
2013-01-23 16:54:00,51.5,50.0,30.05,South,176,5.0,5.0,95,0.06,,,0.33,weatherlink.com 1.10,2013-01-24 00:54:00,
2013-01-23 17:09:00,51.1,50.0,30.05,South,176,0.0,4.0,95,0.03,,,0.33,weatherlink.com 1.10,2013-01-24 01:09:00,
2013-01-23 17:24:00,50.9,50.0,30.04,South,177,0.0,2.0,96,0.01,,,0.33,weatherlink.com 1.10,2013-01-24 01:24:00,
2013-01-23 17:39:00,50.4,49.0,30.05,South,176,0.0,0.0,96,0.02,,,0.34,weatherlink.com 1.10,2013-01-24 01:39:00,
2013-01-23 17:54:00,50.2,49.0,30.06,South,176,0.0,0.0,97,0.01,,,0.34,weatherlink.com 1.10,2013-01-24 01:54:00,
2013-01-23 18:09:00,50.0,49.0,30.06,South,176,0.0,0.0,97,0.01,,,0.34,weatherlink.com 1.10,2013-01-24 02:09:00,
2013-01-23 18:24:00,49.9,49.0,30.06,South,177,0.0,0.0,97,0.01,,,0.35,weatherlink.com 1.10,2013-01-24 02:24:00,
2013-01-23 18:39:00,49.9,49.0,30.06,South,176,0.0,0.0,97,0.01,,,0.35,weatherlink.com 1.10,2013-01-24 02:39:00,
2013-01-23 18:54:00,49.9,49.0,30.06,South,176,1.0,4.0,98,0.01,,,0.35,weatherlink.com 1.10,2013-01-24 02:54:00,
2013-01-23 19:09:00,49.9,49.0,30.06,South,177,3.0,7.0,97,0.01,,,0.35,weatherlink.com 1.10,2013-01-24 03:09:00,
2013-01-23 19:24:00,50.1,49.0,30.07,South,176,2.0,7.0,97,0.00,,,0.35,weatherlink.com 1.10,2013-01-24 03:24:00,
2013-01-23 19:39:00,49.9,49.0,30.06,South,176,0.0,0.0,97,0.00,,,0.35,weatherlink.com 1.10,2013-01-24 03:39:00,
2013-01-23 19:54:00,49.6,49.0,30.07,South,176,0.0,0.0,97,0.00,,,0.35,weatherlink.com 1.10,2013-01-24 03:54:00,
2013-01-23 20:09:00,49.6,49.0,30.08,South,177,0.0,0.0,97,0.00,,,0.35,weatherlink.com 1.10,2013-01-24 04:09:00,
2013-01-23 20:24:00,49.5,49.0,30.08,South,176,0.0,0.0,97,0.00,,,0.35,weatherlink.com 1.10,2013-01-24 04:24:00,
2013-01-23 20:39:00,49.8,49.0,30.09,South,176,1.0,2.0,98,0.01,,,0.36,weatherlink.com 1.10,2013-01-24 04:39:00,
2013-01-23 20:54:00,50.0,50.0,30.09,South,176,0.0,1.0,98,0.01,,,0.36,weatherlink.com 1.10,2013-01-24 04:54:00,
2013-01-23 21:09:00,50.1,49.0,30.09,South,176,0.0,0.0,97,0.02,,,0.37,weatherlink.com 1.10,2013-01-24 05:09:00,
2013-01-23 21:24:00,49.8,49.0,30.09,South,176,0.0,1.0,97,0.02,,,0.37,weatherlink.com 1.10,2013-01-24 05:24:00,
2013-01-23 21:40:00,49.6,49.0,30.09,South,176,0.0,0.0,98,0.01,,,0.37,weatherlink.com 1.10,2013-01-24 05:40:00,
2013-01-23 21:55:00,49.4,49.0,30.09,South,176,0.0,0.0,98,0.01,,,0.37,weatherlink.com 1.10,2013-01-24 05:55:00,
2013-01-23 22:10:00,49.3,49.0,30.08,South,176,0.0,3.0,98,0.01,,,0.38,weatherlink.com 1.10,2013-01-24 06:10:00,
2013-01-23 22:25:00,49.4,49.0,30.09,South,177,0.0,0.0,98,0.01,,,0.38,weatherlink.com 1.10,2013-01-24 06:25:00,
2013-01-23 22:40:00,49.2,49.0,30.09,South,177,0.0,0.0,98,0.02,,,0.39,weatherlink.com 1.10,2013-01-24 06:40:00,
2013-01-23 22:55:00,49.5,49.0,30.09,South,176,0.0,0.0,99,0.02,,,0.39,weatherlink.com 1.10,2013-01-24 06:55:00,
2013-01-23 23:10:00,49.2,49.0,30.09,South,176,0.0,0.0,98,0.01,,,0.39,weatherlink.com 1.10,2013-01-24 07:10:00,
2013-01-23 23:25:00,49.3,49.0,30.09,South,176,0.0,0.0,98,0.01,,,0.39,weatherlink.com 1.10,2013-01-24 07:25:00,
2013-01-23 23:40:00,49.5,49.0,30.09,South,177,1.0,2.0,99,0.00,,,0.39,weatherlink.com 1.10,2013-01-24 07:40:00,
2013-01-23 23:55:00,49.2,49.0,30.09,South,176,0.0,0.0,98,0.00,,,0.39,weatherlink.com 1.10,2013-01-24 07:55:00,